Terminal Aerodrome Forecast
Issued by NWS

Home | Current Version | Previous Version | Text Only | Print | Product List | Glossary On
Versions: 1 2 3 4 5 6 7 8 9 10 11 12 13 14 15 16
000
FTUS44 KLIX 221130
TAFMCB
TAF
KMCB 221130Z 2212/2312 04006KT P6SM SCT012 BKN040
     FM221500 VRB03KT P6SM BKN020
     FM221800 08004KT P6SM SCT025
     FM230300 VRB03KT P6SM SCT030
     FM230800 07003KT P6SM BKN030=

USA.gov is the U.S. government's official web portal to all federal, state and local government web resources and services.